createdAt,value
2018-11-26T12:02:16.066Z,43.43
2018-11-26T12:04:42.992Z,44.33
2018-11-26T12:07:12.227Z,41.83
2018-11-26T12:09:40.908Z,40.83
2018-11-26T12:12:09.571Z,43.30
2018-11-26T12:14:38.205Z,42.17
2018-11-26T12:17:06.939Z,38.40
2018-11-26T12:19:35.740Z,39.70
2018-11-26T12:22:05.979Z,41.43
2018-11-26T12:24:34.623Z,41.30
2018-11-26T12:27:04.711Z,41.43
2018-11-26T12:29:33.711Z,46.00
2018-11-26T12:32:04.281Z,37.57
2018-11-26T12:34:33.269Z,40.47
2018-11-26T12:37:03.617Z,44.20
2018-11-26T12:39:32.250Z,41.03
2018-11-26T12:42:04.186Z,44.00
2018-11-26T12:44:40.607Z,39.77
2018-11-26T12:47:09.729Z,42.27
2018-11-26T12:49:40.238Z,40.10
2018-11-26T12:52:08.957Z,40.13
2018-11-26T12:54:37.654Z,37.70
2018-11-26T12:57:06.850Z,38.30
2018-11-26T12:59:35.584Z,39.10
2018-11-26T13:02:07.169Z,37.87
2018-11-26T13:04:36.097Z,36.33
2018-11-26T13:07:06.870Z,37.80
2018-11-26T13:09:35.619Z,33.13
2018-11-26T13:12:05.414Z,33.97
2018-11-26T13:14:34.137Z,37.67
2018-11-26T13:17:05.762Z,37.13
2018-11-26T13:19:34.386Z,36.93
2018-11-26T13:22:07.533Z,37.57
2018-11-26T13:24:36.490Z,33.70
2018-11-26T13:27:06.109Z,38.03
2018-11-26T13:29:34.770Z,35.87
2018-11-26T13:32:06.269Z,34.97
2018-11-26T13:34:35.061Z,34.40
2018-11-26T13:37:08.163Z,33.50
2018-11-26T13:39:36.826Z,33.60
2018-11-26T13:42:06.810Z,32.40
2018-11-26T13:44:35.431Z,33.67
2018-11-26T13:47:05.862Z,36.47
2018-11-26T13:49:34.459Z,33.30
2018-11-26T13:52:04.509Z,36.43
2018-11-26T13:54:34.501Z,36.63
2018-11-26T13:57:04.583Z,34.27
2018-11-26T13:59:33.295Z,36.90
2018-11-26T14:02:03.149Z,35.37
2018-11-26T14:04:31.780Z,35.00
2018-11-26T14:07:00.371Z,34.10
2018-11-26T14:09:29.020Z,34.50
2018-11-26T14:11:57.644Z,37.77
2018-11-26T14:14:26.266Z,35.17
2018-11-26T14:16:54.965Z,34.93
2018-11-26T14:19:23.585Z,30.23
2018-11-26T14:21:52.214Z,30.27
2018-11-26T14:24:20.930Z,30.43
2018-11-26T14:26:50.966Z,33.00
2018-11-26T14:29:19.631Z,32.67
2018-11-26T14:31:48.259Z,33.30
2018-11-26T14:34:16.916Z,35.53
2018-11-26T14:36:45.575Z,28.50
2018-11-26T14:39:14.218Z,33.27
2018-11-26T14:41:42.867Z,32.63
2018-11-26T14:44:12.583Z,30.93
2018-11-26T14:46:41.338Z,36.17
2018-11-26T14:49:09.983Z,31.23
2018-11-26T14:51:38.567Z,34.83
2018-11-26T14:54:07.252Z,29.87
2018-11-26T14:56:35.900Z,29.50
2018-11-26T14:59:06.197Z,32.90
2018-11-26T15:01:34.897Z,36.33
2018-11-26T15:04:04.751Z,31.03
2018-11-26T15:06:33.403Z,31.67
2018-11-26T15:09:02.861Z,31.53
2018-11-26T15:11:31.407Z,30.40
2018-11-26T15:14:02.821Z,32.10
2018-11-26T15:16:31.479Z,30.67
2018-11-26T15:19:00.122Z,33.77
2018-11-26T15:21:28.797Z,32.60
2018-11-26T15:23:57.889Z,48.77
2018-11-26T15:26:27.678Z,38.43
2018-11-26T15:28:55.205Z,35.60
2018-11-26T15:31:23.819Z,35.00
2018-11-26T15:33:52.784Z,33.97
2018-11-26T15:36:21.419Z,35.43
2018-11-26T15:38:50.026Z,32.53
2018-11-26T15:41:18.835Z,30.77
2018-11-26T15:43:47.482Z,34.37
2018-11-26T15:46:16.224Z,35.53
2018-11-26T15:48:44.949Z,34.30
2018-11-26T15:51:13.734Z,38.85
2018-11-26T15:53:42.375Z,39.10
2018-11-26T15:56:11.011Z,36.40
2018-11-26T15:58:39.661Z,38.03
2018-11-26T16:01:08.444Z,34.30
2018-11-26T16:03:37.706Z,35.40
2018-11-26T16:06:06.587Z,34.00
2018-11-26T16:08:35.249Z,37.67
2018-11-26T16:11:04.515Z,33.70
2018-11-26T16:13:33.262Z,34.33
2018-11-26T16:16:03.538Z,37.53
2018-11-26T16:18:32.569Z,34.73
2018-11-26T16:21:02.481Z,32.33
2018-11-26T16:23:31.167Z,36.67
2018-11-26T16:25:59.930Z,35.13
2018-11-26T16:28:28.571Z,34.50
2018-11-26T16:30:57.243Z,34.97
2018-11-26T16:33:25.913Z,40.67
2018-11-26T16:35:54.543Z,37.50
2018-11-26T16:38:23.210Z,34.93
2018-11-26T16:40:52.621Z,39.03
2018-11-26T16:43:22.545Z,38.40
2018-11-26T16:45:51.611Z,36.90
2018-11-26T16:48:20.238Z,41.80
2018-11-26T16:50:49.260Z,37.87
2018-11-26T16:53:19.441Z,35.37
2018-11-26T16:55:46.562Z,39.27
2018-11-26T16:58:15.255Z,39.30
2018-11-26T17:00:44.053Z,39.70
2018-11-26T17:03:12.761Z,40.43
2018-11-26T17:05:42.578Z,41.37
2018-11-26T17:08:12.763Z,41.63
2018-11-26T17:10:42.816Z,42.47
2018-11-26T17:13:13.221Z,44.03
2018-11-26T17:15:41.904Z,40.13
2018-11-26T17:18:10.592Z,39.07
2018-11-26T17:20:39.326Z,39.50
2018-11-26T17:23:08.425Z,38.27
2018-11-26T17:25:37.165Z,37.90
2018-11-26T17:28:07.530Z,43.40
2018-11-26T17:30:37.101Z,39.50
2018-11-26T17:33:07.126Z,40.20
2018-11-26T17:35:35.783Z,37.73
2018-11-26T17:38:05.644Z,38.07
2018-11-26T17:40:34.350Z,39.07
2018-11-26T17:43:05.816Z,39.90
2018-11-26T17:45:34.568Z,41.07
2018-11-26T17:48:05.627Z,39.87
2018-11-26T17:50:38.596Z,42.27
2018-11-26T17:53:09.772Z,41.97
2018-11-26T17:55:57.013Z,42.83
2018-11-26T17:58:27.099Z,42.70
2018-11-26T18:01:04.133Z,46.53
2018-11-26T18:03:32.849Z,47.27
2018-11-26T18:06:02.856Z,44.53
2018-11-26T18:08:31.584Z,44.57
2018-11-26T18:11:00.219Z,40.57
2018-11-26T18:13:28.851Z,44.90
2018-11-26T18:15:57.828Z,42.43
2018-11-26T18:18:26.461Z,43.53
2018-11-26T18:20:55.101Z,42.00
2018-11-26T18:23:23.827Z,42.37
2018-11-26T18:25:52.447Z,38.33
2018-11-26T18:28:21.251Z,43.57
2018-11-26T18:30:51.348Z,39.10
2018-11-26T18:33:19.978Z,43.53
2018-11-26T18:35:49.214Z,38.30
2018-11-26T18:38:18.177Z,37.47
2018-11-26T18:40:50.555Z,36.90
2018-11-26T18:43:19.545Z,34.70
2018-11-26T18:45:48.235Z,31.83
2018-11-26T18:48:16.939Z,36.47
2018-11-26T18:50:45.637Z,34.60
2018-11-26T18:53:14.294Z,33.97
2018-11-26T18:55:43.396Z,35.83
2018-11-26T18:58:12.575Z,36.17
2018-11-26T19:00:45.038Z,34.00
2018-11-26T19:03:18.329Z,34.57
2018-11-26T19:05:47.758Z,32.57
2018-11-26T19:08:16.422Z,33.93
2018-11-26T19:10:45.402Z,33.80
2018-11-26T19:13:16.703Z,37.37
2018-11-26T19:15:47.104Z,35.10
2018-11-26T19:18:23.022Z,36.17
2018-11-26T19:20:52.074Z,32.80
2018-11-26T19:23:20.932Z,31.47
2018-11-26T19:25:50.947Z,36.20
2018-11-26T19:28:20.507Z,28.47
2018-11-26T19:30:48.598Z,30.10
2018-11-26T19:33:19.400Z,30.73
2018-11-26T19:35:48.752Z,28.50
2018-11-26T19:38:17.470Z,29.87
2018-11-26T19:40:46.308Z,30.87
2018-11-26T19:43:15.349Z,31.40
2018-11-26T19:45:44.145Z,29.87
2018-11-26T19:48:12.972Z,31.83
2018-11-26T19:50:41.779Z,30.87
2018-11-26T19:53:12.123Z,31.10
2018-11-26T19:55:41.959Z,28.50
2018-11-26T19:58:11.086Z,30.17
2018-11-26T20:00:40.599Z,30.97
2018-11-26T20:03:44.565Z,29.23
2018-11-26T20:06:17.263Z,28.20
2018-11-26T20:08:48.578Z,33.57
2018-11-26T20:11:17.498Z,27.83
2018-11-26T20:13:46.243Z,31.27
2018-11-26T20:16:17.063Z,32.07
2018-11-26T20:18:48.760Z,29.47
2018-11-26T20:21:17.464Z,28.43
2018-11-26T20:23:46.161Z,29.83
2018-11-26T20:26:14.833Z,29.77
2018-11-26T20:28:43.545Z,31.73
2018-11-26T20:31:12.416Z,28.07
2018-11-26T20:33:41.153Z,28.60
2018-11-26T20:36:12.040Z,30.30
2018-11-26T20:38:41.000Z,28.30
2018-11-26T20:41:12.437Z,30.43
2018-11-26T20:43:41.937Z,28.43
2018-11-26T20:46:10.816Z,28.10
2018-11-26T20:48:40.171Z,31.10
2018-11-26T20:51:09.131Z,31.03
2018-11-26T20:53:37.868Z,31.73
2018-11-26T20:56:13.719Z,29.27
2018-11-26T20:58:42.556Z,25.73
2018-11-26T21:01:11.214Z,27.00
2018-11-26T21:03:40.260Z,27.00
2018-11-26T21:06:09.159Z,29.60
2018-11-26T21:08:38.116Z,28.43
2018-11-26T21:11:07.412Z,28.33
2018-11-26T21:13:37.401Z,27.27
2018-11-26T21:16:06.777Z,31.13
2018-11-26T21:18:35.813Z,27.60
2018-11-26T21:21:07.235Z,26.60
2018-11-26T21:23:36.278Z,25.53
2018-11-26T21:26:07.822Z,25.73
2018-11-26T21:28:36.645Z,25.43
2018-11-26T21:31:06.201Z,29.00
2018-11-26T21:33:35.278Z,25.07
2018-11-26T21:36:05.853Z,25.87
2018-11-26T21:38:36.990Z,24.33
2018-11-26T21:41:06.593Z,24.93
2018-11-26T21:43:35.592Z,21.83
2018-11-26T21:46:06.271Z,24.07
2018-11-26T21:48:35.094Z,25.70
2018-11-26T21:51:06.502Z,24.37
2018-11-26T21:53:35.351Z,25.57
2018-11-26T21:56:05.693Z,27.57
2018-11-26T21:58:34.539Z,24.47
2018-11-26T22:01:06.772Z,27.00
2018-11-26T22:03:35.739Z,25.87
2018-11-26T22:06:05.756Z,25.17
2018-11-26T22:08:34.645Z,26.73
2018-11-26T22:11:04.830Z,26.87
2018-11-26T22:13:33.677Z,28.73
2018-11-26T22:16:04.432Z,29.50
2018-11-26T22:18:34.362Z,26.03
2018-11-26T22:21:06.984Z,25.33
2018-11-26T22:23:35.931Z,27.27
2018-11-26T22:26:05.647Z,25.77
2018-11-26T22:28:34.437Z,24.47
2018-11-26T22:31:05.358Z,25.20
2018-11-26T22:33:34.180Z,27.10
2018-11-26T22:36:05.185Z,24.50
2018-11-26T22:38:33.985Z,22.40
2018-11-26T22:41:04.021Z,22.83
2018-11-26T22:43:32.677Z,21.37
2018-11-26T22:46:03.925Z,18.97
2018-11-26T22:48:32.523Z,18.70
2018-11-26T22:51:02.938Z,20.23
2018-11-26T22:53:31.776Z,19.57
2018-11-26T22:56:00.447Z,19.67
2018-11-26T22:58:29.126Z,20.50
2018-11-26T23:00:57.806Z,19.07
2018-11-26T23:03:27.342Z,22.97
2018-11-26T23:05:55.983Z,18.03
2018-11-26T23:08:24.680Z,19.07
2018-11-26T23:10:53.383Z,21.00
2018-11-26T23:13:22.017Z,22.43
2018-11-26T23:15:50.981Z,22.83
2018-11-26T23:18:19.615Z,22.27
2018-11-26T23:20:48.243Z,22.47
2018-11-26T23:23:16.928Z,21.63
2018-11-26T23:25:45.567Z,23.10
2018-11-26T23:28:14.272Z,23.37
2018-11-26T23:30:42.929Z,24.67
2018-11-26T23:33:11.569Z,24.73
2018-11-26T23:35:40.778Z,25.57
2018-11-26T23:38:09.393Z,26.97
2018-11-26T23:40:42.604Z,28.17
2018-11-26T23:43:11.279Z,29.13
2018-11-26T23:45:39.953Z,28.37
2018-11-26T23:48:08.613Z,27.67
2018-11-26T23:50:37.318Z,28.13
2018-11-26T23:53:06.987Z,30.97
2018-11-26T23:55:35.658Z,29.27
2018-11-26T23:58:05.882Z,29.00
